sensor_id;sensor_type;location;lat;lon;timestamp;temperature;humidity
12948;DHT22;6539;49.476;8.484;2023-08-24T00:01:10;23.90;99.90
12948;DHT22;6539;49.476;8.484;2023-08-24T00:04:00;24.00;99.90
12948;DHT22;6539;49.476;8.484;2023-08-24T00:06:46;24.10;99.90
12948;DHT22;6539;49.476;8.484;2023-08-24T00:09:32;24.10;99.90
12948;DHT22;6539;49.476;8.484;2023-08-24T00:12:23;24.10;99.90
12948;DHT22;6539;49.476;8.484;2023-08-24T00:15:09;24.20;99.90
12948;DHT22;6539;49.476;8.484;2023-08-24T00:17:56;24.20;99.90
12948;DHT22;6539;49.476;8.484;2023-08-24T00:20:42;24.20;99.90
12948;DHT22;6539;49.476;8.484;2023-08-24T00:23:28;24.30;99.90
12948;DHT22;6539;49.476;8.484;2023-08-24T00:26:14;24.30;99.90
12948;DHT22;6539;49.476;8.484;2023-08-24T00:29:02;24.20;99.90
12948;DHT22;6539;49.476;8.484;2023-08-24T00:31:48;24.00;99.90
12948;DHT22;6539;49.476;8.484;2023-08-24T00:34:39;23.90;99.90
12948;DHT22;6539;49.476;8.484;2023-08-24T00:37:25;23.80;99.90
12948;DHT22;6539;49.476;8.484;2023-08-24T00:40:11;23.80;99.90
12948;DHT22;6539;49.476;8.484;2023-08-24T00:42:57;23.70;99.90
12948;DHT22;6539;49.476;8.484;2023-08-24T00:45:43;23.60;99.90
12948;DHT22;6539;49.476;8.484;2023-08-24T00:48:34;23.50;99.90
12948;DHT22;6539;49.476;8.484;2023-08-24T00:51:23;23.40;99.90
12948;DHT22;6539;49.476;8.484;2023-08-24T00:54:10;23.30;99.90
12948;DHT22;6539;49.476;8.484;2023-08-24T00:56:59;23.30;99.90
12948;DHT22;6539;49.476;8.484;2023-08-24T00:59:45;23.30;99.90
12948;DHT22;6539;49.476;8.484;2023-08-24T01:02:32;23.30;99.90
12948;DHT22;6539;49.476;8.484;2023-08-24T01:05:21;23.30;99.90
12948;DHT22;6539;49.476;8.484;2023-08-24T01:08:07;23.30;99.90
12948;DHT22;6539;49.476;8.484;2023-08-24T01:17:12;23.20;99.90
12948;DHT22;6539;49.476;8.484;2023-08-24T01:20:02;23.20;99.90
12948;DHT22;6539;49.476;8.484;2023-08-24T01:23:18;23.20;99.90
12948;DHT22;6539;49.476;8.484;2023-08-24T01:26:30;23.10;99.90
12948;DHT22;6539;49.476;8.484;2023-08-24T01:29:19;23.00;99.90
12948;DHT22;6539;49.476;8.484;2023-08-24T01:32:09;22.90;99.90
12948;DHT22;6539;49.476;8.484;2023-08-24T01:35:03;22.90;99.90
12948;DHT22;6539;49.476;8.484;2023-08-24T01:37:55;23.00;99.90
12948;DHT22;6539;49.476;8.484;2023-08-24T01:41:17;23.00;99.90
12948;DHT22;6539;49.476;8.484;2023-08-24T01:44:13;23.00;99.90
12948;DHT22;6539;49.476;8.484;2023-08-24T01:47:05;23.20;99.90
12948;DHT22;6539;49.476;8.484;2023-08-24T01:49:57;23.30;99.90
12948;DHT22;6539;49.476;8.484;2023-08-24T01:52:44;23.40;99.90
12948;DHT22;6539;49.476;8.484;2023-08-24T01:55:30;23.50;99.90
12948;DHT22;6539;49.476;8.484;2023-08-24T01:58:18;23.50;99.90
12948;DHT22;6539;49.476;8.484;2023-08-24T02:01:08;23.50;99.90
12948;DHT22;6539;49.476;8.484;2023-08-24T02:03:58;23.50;99.90
12948;DHT22;6539;49.476;8.484;2023-08-24T02:06:45;23.40;99.90
12948;DHT22;6539;49.476;8.484;2023-08-24T02:09:34;23.30;99.90
12948;DHT22;6539;49.476;8.484;2023-08-24T02:12:22;23.30;99.90
12948;DHT22;6539;49.476;8.484;2023-08-24T02:15:08;23.30;99.90
12948;DHT22;6539;49.476;8.484;2023-08-24T02:17:55;23.20;99.90
12948;DHT22;6539;49.476;8.484;2023-08-24T02:20:41;23.30;99.90
12948;DHT22;6539;49.476;8.484;2023-08-24T02:23:27;23.20;99.90
12948;DHT22;6539;49.476;8.484;2023-08-24T02:26:13;23.20;99.90
12948;DHT22;6539;49.476;8.484;2023-08-24T02:28:59;23.10;99.90
12948;DHT22;6539;49.476;8.484;2023-08-24T02:31:45;23.10;99.90
12948;DHT22;6539;49.476;8.484;2023-08-24T02:34:31;23.10;99.90
12948;DHT22;6539;49.476;8.484;2023-08-24T02:37:17;23.10;99.90
12948;DHT22;6539;49.476;8.484;2023-08-24T02:40:04;23.20;99.90
12948;DHT22;6539;49.476;8.484;2023-08-24T02:42:53;23.20;99.90
12948;DHT22;6539;49.476;8.484;2023-08-24T02:45:39;23.20;99.90
12948;DHT22;6539;49.476;8.484;2023-08-24T02:48:27;23.30;99.90
12948;DHT22;6539;49.476;8.484;2023-08-24T02:51:14;23.20;99.90
12948;DHT22;6539;49.476;8.484;2023-08-24T02:54:06;23.20;99.90
12948;DHT22;6539;49.476;8.484;2023-08-24T02:56:53;23.10;99.90
12948;DHT22;6539;49.476;8.484;2023-08-24T02:59:39;23.20;99.90
12948;DHT22;6539;49.476;8.484;2023-08-24T03:02:29;23.20;99.90
12948;DHT22;6539;49.476;8.484;2023-08-24T03:05:15;23.10;99.90
12948;DHT22;6539;49.476;8.484;2023-08-24T03:08:01;23.10;99.90
12948;DHT22;6539;49.476;8.484;2023-08-24T03:10:50;23.10;99.90
12948;DHT22;6539;49.476;8.484;2023-08-24T03:13:37;22.90;99.90
12948;DHT22;6539;49.476;8.484;2023-08-24T03:16:26;22.90;99.90
12948;DHT22;6539;49.476;8.484;2023-08-24T03:19:17;22.90;99.90
12948;DHT22;6539;49.476;8.484;2023-08-24T03:22:03;23.00;99.90
12948;DHT22;6539;49.476;8.484;2023-08-24T03:24:52;22.90;99.90
12948;DHT22;6539;49.476;8.484;2023-08-24T03:27:40;22.90;99.90
12948;DHT22;6539;49.476;8.484;2023-08-24T03:30:27;23.00;99.90
12948;DHT22;6539;49.476;8.484;2023-08-24T03:33:15;23.10;99.90
12948;DHT22;6539;49.476;8.484;2023-08-24T03:36:02;23.10;99.90
12948;DHT22;6539;49.476;8.484;2023-08-24T03:38:51;23.10;99.90
12948;DHT22;6539;49.476;8.484;2023-08-24T03:41:37;23.10;99.90
12948;DHT22;6539;49.476;8.484;2023-08-24T03:44:25;23.20;99.90
12948;DHT22;6539;49.476;8.484;2023-08-24T03:47:11;23.10;99.90
12948;DHT22;6539;49.476;8.484;2023-08-24T03:49:59;23.10;99.90
12948;DHT22;6539;49.476;8.484;2023-08-24T03:52:45;22.90;99.90
12948;DHT22;6539;49.476;8.484;2023-08-24T03:55:36;23.00;99.90
12948;DHT22;6539;49.476;8.484;2023-08-24T03:58:22;22.70;99.90
12948;DHT22;6539;49.476;8.484;2023-08-24T04:01:11;22.60;99.90
12948;DHT22;6539;49.476;8.484;2023-08-24T04:04:00;22.40;99.90
12948;DHT22;6539;49.476;8.484;2023-08-24T04:06:46;22.40;99.90
12948;DHT22;6539;49.476;8.484;2023-08-24T04:09:32;22.40;99.90
12948;DHT22;6539;49.476;8.484;2023-08-24T04:12:18;22.30;99.90
12948;DHT22;6539;49.476;8.484;2023-08-24T04:15:06;22.20;99.90
12948;DHT22;6539;49.476;8.484;2023-08-24T04:17:52;22.30;99.90
12948;DHT22;6539;49.476;8.484;2023-08-24T04:20:38;22.10;99.90
12948;DHT22;6539;49.476;8.484;2023-08-24T04:23:27;22.10;99.90
12948;DHT22;6539;49.476;8.484;2023-08-24T04:26:13;22.20;99.90
12948;DHT22;6539;49.476;8.484;2023-08-24T04:29:04;22.40;99.90
12948;DHT22;6539;49.476;8.484;2023-08-24T04:31:50;22.30;99.90
12948;DHT22;6539;49.476;8.484;2023-08-24T04:34:38;22.30;99.90
12948;DHT22;6539;49.476;8.484;2023-08-24T04:37:24;22.20;99.90
12948;DHT22;6539;49.476;8.484;2023-08-24T04:40:15;22.30;99.90
12948;DHT22;6539;49.476;8.484;2023-08-24T04:43:03;22.40;99.90
12948;DHT22;6539;49.476;8.484;2023-08-24T04:45:50;22.40;99.90
12948;DHT22;6539;49.476;8.484;2023-08-24T04:48:40;22.50;99.90
12948;DHT22;6539;49.476;8.484;2023-08-24T04:51:26;22.50;99.90
12948;DHT22;6539;49.476;8.484;2023-08-24T04:54:13;22.70;99.90
12948;DHT22;6539;49.476;8.484;2023-08-24T04:57:02;22.80;99.90
12948;DHT22;6539;49.476;8.484;2023-08-24T04:59:48;22.80;99.90
12948;DHT22;6539;49.476;8.484;2023-08-24T05:02:34;22.80;99.90
12948;DHT22;6539;49.476;8.484;2023-08-24T05:05:20;22.70;99.90
12948;DHT22;6539;49.476;8.484;2023-08-24T05:08:10;22.70;99.90
12948;DHT22;6539;49.476;8.484;2023-08-24T05:10:57;22.70;99.90
12948;DHT22;6539;49.476;8.484;2023-08-24T05:13:48;22.70;99.90
12948;DHT22;6539;49.476;8.484;2023-08-24T05:16:38;22.60;99.90
12948;DHT22;6539;49.476;8.484;2023-08-24T05:19:24;22.50;99.90
12948;DHT22;6539;49.476;8.484;2023-08-24T05:22:10;22.50;99.90
12948;DHT22;6539;49.476;8.484;2023-08-24T05:24:56;22.50;99.90
12948;DHT22;6539;49.476;8.484;2023-08-24T05:27:42;22.50;99.90
12948;DHT22;6539;49.476;8.484;2023-08-24T05:30:30;22.50;99.90
12948;DHT22;6539;49.476;8.484;2023-08-24T05:33:17;22.50;99.90
12948;DHT22;6539;49.476;8.484;2023-08-24T05:36:03;22.60;99.90
12948;DHT22;6539;49.476;8.484;2023-08-24T05:38:52;22.50;99.90
12948;DHT22;6539;49.476;8.484;2023-08-24T05:41:41;22.30;99.90
12948;DHT22;6539;49.476;8.484;2023-08-24T05:44:27;22.20;99.90
12948;DHT22;6539;49.476;8.484;2023-08-24T05:47:13;22.10;99.90
12948;DHT22;6539;49.476;8.484;2023-08-24T05:49:59;22.10;99.90
12948;DHT22;6539;49.476;8.484;2023-08-24T05:52:47;22.00;99.90
12948;DHT22;6539;49.476;8.484;2023-08-24T05:55:34;22.10;99.90
12948;DHT22;6539;49.476;8.484;2023-08-24T05:58:19;22.10;99.90
12948;DHT22;6539;49.476;8.484;2023-08-24T06:01:05;22.10;99.90
12948;DHT22;6539;49.476;8.484;2023-08-24T06:03:52;22.10;99.90
12948;DHT22;6539;49.476;8.484;2023-08-24T06:06:38;22.20;99.90
12948;DHT22;6539;49.476;8.484;2023-08-24T06:09:24;22.20;99.90
12948;DHT22;6539;49.476;8.484;2023-08-24T06:12:12;22.30;99.90
12948;DHT22;6539;49.476;8.484;2023-08-24T06:14:58;22.30;99.90
12948;DHT22;6539;49.476;8.484;2023-08-24T06:17:49;22.40;99.90
12948;DHT22;6539;49.476;8.484;2023-08-24T06:20:36;22.50;99.90
12948;DHT22;6539;49.476;8.484;2023-08-24T06:23:22;22.40;99.90
12948;DHT22;6539;49.476;8.484;2023-08-24T06:26:08;22.50;99.90
12948;DHT22;6539;49.476;8.484;2023-08-24T06:28:57;22.60;99.90
12948;DHT22;6539;49.476;8.484;2023-08-24T06:31:47;22.70;99.90
12948;DHT22;6539;49.476;8.484;2023-08-24T06:34:33;22.70;99.90
12948;DHT22;6539;49.476;8.484;2023-08-24T06:37:19;22.70;99.90
12948;DHT22;6539;49.476;8.484;2023-08-24T06:40:06;22.60;99.90
12948;DHT22;6539;49.476;8.484;2023-08-24T06:42:52;22.50;99.90
12948;DHT22;6539;49.476;8.484;2023-08-24T06:45:43;22.40;99.90
12948;DHT22;6539;49.476;8.484;2023-08-24T06:48:29;22.40;99.90
12948;DHT22;6539;49.476;8.484;2023-08-24T06:51:15;22.40;99.90
12948;DHT22;6539;49.476;8.484;2023-08-24T06:54:02;22.50;99.90
12948;DHT22;6539;49.476;8.484;2023-08-24T06:56:52;22.60;99.90
12948;DHT22;6539;49.476;8.484;2023-08-24T06:59:43;22.60;99.90
12948;DHT22;6539;49.476;8.484;2023-08-24T07:02:29;22.60;99.90
12948;DHT22;6539;49.476;8.484;2023-08-24T07:05:16;22.70;99.90
12948;DHT22;6539;49.476;8.484;2023-08-24T07:08:07;22.70;99.90
12948;DHT22;6539;49.476;8.484;2023-08-24T07:10:53;22.70;99.90
12948;DHT22;6539;49.476;8.484;2023-08-24T07:13:42;22.60;99.90
12948;DHT22;6539;49.476;8.484;2023-08-24T07:16:28;22.60;99.90
12948;DHT22;6539;49.476;8.484;2023-08-24T07:19:16;22.70;99.90
12948;DHT22;6539;49.476;8.484;2023-08-24T07:22:07;22.90;99.90
12948;DHT22;6539;49.476;8.484;2023-08-24T07:24:54;23.00;99.90
12948;DHT22;6539;49.476;8.484;2023-08-24T07:27:40;23.30;99.90
12948;DHT22;6539;49.476;8.484;2023-08-24T07:30:28;23.50;99.90
12948;DHT22;6539;49.476;8.484;2023-08-24T07:33:17;23.80;99.90
12948;DHT22;6539;49.476;8.484;2023-08-24T07:36:07;24.10;99.90
12948;DHT22;6539;49.476;8.484;2023-08-24T07:38:56;24.20;99.90
12948;DHT22;6539;49.476;8.484;2023-08-24T07:41:44;24.10;99.90
12948;DHT22;6539;49.476;8.484;2023-08-24T07:44:31;24.10;99.90
12948;DHT22;6539;49.476;8.484;2023-08-24T07:47:17;24.10;99.90
12948;DHT22;6539;49.476;8.484;2023-08-24T07:50:08;24.20;99.90
12948;DHT22;6539;49.476;8.484;2023-08-24T07:53:00;24.30;99.90
12948;DHT22;6539;49.476;8.484;2023-08-24T07:55:46;24.40;99.90
12948;DHT22;6539;49.476;8.484;2023-08-24T07:58:33;24.40;99.90
12948;DHT22;6539;49.476;8.484;2023-08-24T08:01:19;24.40;99.90
12948;DHT22;6539;49.476;8.484;2023-08-24T08:04:07;24.40;99.90
12948;DHT22;6539;49.476;8.484;2023-08-24T08:06:55;24.40;99.90
12948;DHT22;6539;49.476;8.484;2023-08-24T08:09:42;24.40;99.90
12948;DHT22;6539;49.476;8.484;2023-08-24T08:12:28;24.40;99.90
12948;DHT22;6539;49.476;8.484;2023-08-24T08:15:17;24.50;99.90
12948;DHT22;6539;49.476;8.484;2023-08-24T08:18:04;24.60;99.90
12948;DHT22;6539;49.476;8.484;2023-08-24T08:20:51;24.80;99.90
12948;DHT22;6539;49.476;8.484;2023-08-24T08:23:38;25.00;99.90
12948;DHT22;6539;49.476;8.484;2023-08-24T08:26:27;25.10;99.90
12948;DHT22;6539;49.476;8.484;2023-08-24T08:29:13;25.30;99.90
12948;DHT22;6539;49.476;8.484;2023-08-24T08:31:59;25.50;99.90
12948;DHT22;6539;49.476;8.484;2023-08-24T08:34:45;25.70;99.90
12948;DHT22;6539;49.476;8.484;2023-08-24T08:37:31;26.00;99.90
12948;DHT22;6539;49.476;8.484;2023-08-24T08:40:26;26.20;99.90
12948;DHT22;6539;49.476;8.484;2023-08-24T08:43:16;26.50;99.90
12948;DHT22;6539;49.476;8.484;2023-08-24T08:46:07;26.80;99.90
12948;DHT22;6539;49.476;8.484;2023-08-24T08:48:54;26.80;99.90
12948;DHT22;6539;49.476;8.484;2023-08-24T08:51:40;26.80;99.90
12948;DHT22;6539;49.476;8.484;2023-08-24T08:54:28;26.90;99.90
12948;DHT22;6539;49.476;8.484;2023-08-24T08:57:15;26.80;99.90
12948;DHT22;6539;49.476;8.484;2023-08-24T09:00:04;26.80;99.90
12948;DHT22;6539;49.476;8.484;2023-08-24T09:02:54;26.90;99.90
12948;DHT22;6539;49.476;8.484;2023-08-24T09:05:42;26.80;99.90
12948;DHT22;6539;49.476;8.484;2023-08-24T09:08:29;26.90;99.90
12948;DHT22;6539;49.476;8.484;2023-08-24T09:11:15;27.00;99.90
12948;DHT22;6539;49.476;8.484;2023-08-24T09:14:03;27.10;99.90
12948;DHT22;6539;49.476;8.484;2023-08-24T09:16:52;27.20;99.90
12948;DHT22;6539;49.476;8.484;2023-08-24T09:19:40;27.40;99.90
12948;DHT22;6539;49.476;8.484;2023-08-24T09:22:26;27.40;99.90
12948;DHT22;6539;49.476;8.484;2023-08-24T09:25:15;27.50;99.90
12948;DHT22;6539;49.476;8.484;2023-08-24T09:28:02;27.50;99.90
12948;DHT22;6539;49.476;8.484;2023-08-24T09:30:59;27.60;99.90
12948;DHT22;6539;49.476;8.484;2023-08-24T09:33:47;27.60;99.90
12948;DHT22;6539;49.476;8.484;2023-08-24T09:36:36;27.70;99.90
12948;DHT22;6539;49.476;8.484;2023-08-24T09:39:25;27.80;99.90
12948;DHT22;6539;49.476;8.484;2023-08-24T09:42:12;28.10;99.90
12948;DHT22;6539;49.476;8.484;2023-08-24T09:45:15;28.10;99.90
12948;DHT22;6539;49.476;8.484;2023-08-24T09:48:01;28.10;99.90
12948;DHT22;6539;49.476;8.484;2023-08-24T09:50:51;28.10;99.90
12948;DHT22;6539;49.476;8.484;2023-08-24T09:53:40;28.20;99.90
12948;DHT22;6539;49.476;8.484;2023-08-24T09:56:28;28.40;99.90
12948;DHT22;6539;49.476;8.484;2023-08-24T09:59:17;28.40;99.90
12948;DHT22;6539;49.476;8.484;2023-08-24T10:02:18;28.60;99.90
12948;DHT22;6539;49.476;8.484;2023-08-24T10:05:07;28.80;99.90
12948;DHT22;6539;49.476;8.484;2023-08-24T10:07:57;28.80;99.90
12948;DHT22;6539;49.476;8.484;2023-08-24T10:10:44;29.00;99.90
12948;DHT22;6539;49.476;8.484;2023-08-24T10:13:46;29.00;99.90
12948;DHT22;6539;49.476;8.484;2023-08-24T10:16:37;29.30;99.90
12948;DHT22;6539;49.476;8.484;2023-08-24T10:19:25;29.70;99.90
12948;DHT22;6539;49.476;8.484;2023-08-24T10:22:12;30.00;99.90
12948;DHT22;6539;49.476;8.484;2023-08-24T10:24:59;30.40;99.90
12948;DHT22;6539;49.476;8.484;2023-08-24T10:27:45;30.50;99.90
12948;DHT22;6539;49.476;8.484;2023-08-24T10:30:36;30.80;99.90
12948;DHT22;6539;49.476;8.484;2023-08-24T10:33:24;30.90;99.90
12948;DHT22;6539;49.476;8.484;2023-08-24T10:36:16;30.90;99.90
12948;DHT22;6539;49.476;8.484;2023-08-24T10:39:05;31.20;99.90
12948;DHT22;6539;49.476;8.484;2023-08-24T10:41:53;31.00;99.90
12948;DHT22;6539;49.476;8.484;2023-08-24T10:44:43;31.00;99.90
12948;DHT22;6539;49.476;8.484;2023-08-24T10:47:44;31.20;99.90
12948;DHT22;6539;49.476;8.484;2023-08-24T10:50:34;31.60;99.90
12948;DHT22;6539;49.476;8.484;2023-08-24T10:53:38;31.70;99.90
12948;DHT22;6539;49.476;8.484;2023-08-24T10:56:39;32.00;99.90
12948;DHT22;6539;49.476;8.484;2023-08-24T10:59:37;32.40;99.70
12948;DHT22;6539;49.476;8.484;2023-08-24T11:02:26;32.60;99.10
12948;DHT22;6539;49.476;8.484;2023-08-24T11:08:07;33.10;97.80
12948;DHT22;6539;49.476;8.484;2023-08-24T11:10:56;33.50;96.50
12948;DHT22;6539;49.476;8.484;2023-08-24T11:14:18;33.60;95.60
12948;DHT22;6539;49.476;8.484;2023-08-24T11:17:21;33.90;94.70
12948;DHT22;6539;49.476;8.484;2023-08-24T11:20:08;33.80;93.20
12948;DHT22;6539;49.476;8.484;2023-08-24T11:23:01;33.80;93.80
12948;DHT22;6539;49.476;8.484;2023-08-24T11:25:49;33.50;92.20
12948;DHT22;6539;49.476;8.484;2023-08-24T11:28:40;33.10;92.40
12948;DHT22;6539;49.476;8.484;2023-08-24T11:31:26;32.90;92.70
12948;DHT22;6539;49.476;8.484;2023-08-24T11:34:15;32.90;92.80
12948;DHT22;6539;49.476;8.484;2023-08-24T11:37:04;32.90;92.20
12948;DHT22;6539;49.476;8.484;2023-08-24T11:39:50;32.60;92.80
12948;DHT22;6539;49.476;8.484;2023-08-24T11:42:36;32.40;92.60
12948;DHT22;6539;49.476;8.484;2023-08-24T11:45:22;32.30;92.90
12948;DHT22;6539;49.476;8.484;2023-08-24T11:48:09;32.40;92.30
12948;DHT22;6539;49.476;8.484;2023-08-24T11:51:01;32.30;93.00
12948;DHT22;6539;49.476;8.484;2023-08-24T11:53:52;32.00;93.70
12948;DHT22;6539;49.476;8.484;2023-08-24T11:56:42;31.90;93.90
12948;DHT22;6539;49.476;8.484;2023-08-24T11:59:31;32.00;94.20
12948;DHT22;6539;49.476;8.484;2023-08-24T12:02:17;32.20;94.30
12948;DHT22;6539;49.476;8.484;2023-08-24T12:05:06;32.10;94.70
12948;DHT22;6539;49.476;8.484;2023-08-24T12:08:05;32.10;94.90
12948;DHT22;6539;49.476;8.484;2023-08-24T12:10:52;32.20;94.90
12948;DHT22;6539;49.476;8.484;2023-08-24T12:13:49;32.40;95.20
12948;DHT22;6539;49.476;8.484;2023-08-24T12:16:37;32.60;95.10
12948;DHT22;6539;49.476;8.484;2023-08-24T12:19:27;32.70;95.20
12948;DHT22;6539;49.476;8.484;2023-08-24T12:22:16;32.90;95.00
12948;DHT22;6539;49.476;8.484;2023-08-24T12:25:08;33.20;94.80
12948;DHT22;6539;49.476;8.484;2023-08-24T12:28:14;33.50;94.80
12948;DHT22;6539;49.476;8.484;2023-08-24T12:31:01;33.30;94.70
12948;DHT22;6539;49.476;8.484;2023-08-24T12:34:03;33.20;94.80
12948;DHT22;6539;49.476;8.484;2023-08-24T12:36:54;33.00;95.00
12948;DHT22;6539;49.476;8.484;2023-08-24T12:39:40;32.80;95.40
12948;DHT22;6539;49.476;8.484;2023-08-24T12:42:29;32.70;95.70
12948;DHT22;6539;49.476;8.484;2023-08-24T12:45:17;32.90;95.90
12948;DHT22;6539;49.476;8.484;2023-08-24T12:48:06;32.80;96.30
12948;DHT22;6539;49.476;8.484;2023-08-24T12:50:59;33.10;96.30
12948;DHT22;6539;49.476;8.484;2023-08-24T12:53:48;33.10;96.50
12948;DHT22;6539;49.476;8.484;2023-08-24T12:56:38;32.90;96.90
12948;DHT22;6539;49.476;8.484;2023-08-24T12:59:30;33.00;97.00
12948;DHT22;6539;49.476;8.484;2023-08-24T13:02:17;33.00;97.30
12948;DHT22;6539;49.476;8.484;2023-08-24T13:05:03;32.60;97.60
12948;DHT22;6539;49.476;8.484;2023-08-24T13:07:50;32.70;98.10
12948;DHT22;6539;49.476;8.484;2023-08-24T13:10:37;32.80;98.30
12948;DHT22;6539;49.476;8.484;2023-08-24T13:13:25;32.80;98.30
12948;DHT22;6539;49.476;8.484;2023-08-24T13:16:17;33.00;98.30
12948;DHT22;6539;49.476;8.484;2023-08-24T13:19:03;33.20;98.10
12948;DHT22;6539;49.476;8.484;2023-08-24T13:21:53;33.30;98.10
12948;DHT22;6539;49.476;8.484;2023-08-24T13:24:39;34.00;97.50
12948;DHT22;6539;49.476;8.484;2023-08-24T13:27:25;34.80;96.40
12948;DHT22;6539;49.476;8.484;2023-08-24T13:30:13;35.10;95.60
12948;DHT22;6539;49.476;8.484;2023-08-24T13:32:59;35.20;95.10
12948;DHT22;6539;49.476;8.484;2023-08-24T13:35:46;34.60;95.50
12948;DHT22;6539;49.476;8.484;2023-08-24T13:38:37;34.40;95.90
12948;DHT22;6539;49.476;8.484;2023-08-24T13:41:23;34.30;96.10
12948;DHT22;6539;49.476;8.484;2023-08-24T13:44:10;34.70;95.60
12948;DHT22;6539;49.476;8.484;2023-08-24T13:46:56;35.10;94.70
12948;DHT22;6539;49.476;8.484;2023-08-24T13:49:43;34.70;95.30
12948;DHT22;6539;49.476;8.484;2023-08-24T13:52:30;34.20;95.30
12948;DHT22;6539;49.476;8.484;2023-08-24T13:55:16;33.90;96.20
12948;DHT22;6539;49.476;8.484;2023-08-24T13:58:02;33.60;96.30
12948;DHT22;6539;49.476;8.484;2023-08-24T14:00:55;33.30;96.70
12948;DHT22;6539;49.476;8.484;2023-08-24T14:03:44;33.00;97.50
12948;DHT22;6539;49.476;8.484;2023-08-24T14:06:32;32.80;98.30
12948;DHT22;6539;49.476;8.484;2023-08-24T14:09:21;32.50;98.80
12948;DHT22;6539;49.476;8.484;2023-08-24T14:12:08;32.20;99.70
12948;DHT22;6539;49.476;8.484;2023-08-24T14:14:56;31.80;99.90
12948;DHT22;6539;49.476;8.484;2023-08-24T14:17:42;31.40;99.90
12948;DHT22;6539;49.476;8.484;2023-08-24T14:20:31;31.10;99.90
12948;DHT22;6539;49.476;8.484;2023-08-24T14:23:20;30.90;99.90
12948;DHT22;6539;49.476;8.484;2023-08-24T14:26:06;30.60;99.90
12948;DHT22;6539;49.476;8.484;2023-08-24T14:28:56;30.20;99.90
12948;DHT22;6539;49.476;8.484;2023-08-24T14:31:43;30.00;99.90
12948;DHT22;6539;49.476;8.484;2023-08-24T14:34:31;29.80;99.90
12948;DHT22;6539;49.476;8.484;2023-08-24T14:37:20;29.70;99.90
12948;DHT22;6539;49.476;8.484;2023-08-24T14:40:13;29.60;99.90
12948;DHT22;6539;49.476;8.484;2023-08-24T14:43:03;29.40;99.90
12948;DHT22;6539;49.476;8.484;2023-08-24T14:45:52;29.20;99.90
12948;DHT22;6539;49.476;8.484;2023-08-24T14:48:38;29.10;99.90
12948;DHT22;6539;49.476;8.484;2023-08-24T14:51:29;28.90;99.90
12948;DHT22;6539;49.476;8.484;2023-08-24T14:54:17;28.90;99.90
12948;DHT22;6539;49.476;8.484;2023-08-24T14:57:11;28.70;99.90
12948;DHT22;6539;49.476;8.484;2023-08-24T14:59:56;28.50;99.90
12948;DHT22;6539;49.476;8.484;2023-08-24T15:02:42;28.30;99.90
12948;DHT22;6539;49.476;8.484;2023-08-24T15:05:37;28.20;99.90
12948;DHT22;6539;49.476;8.484;2023-08-24T15:08:29;28.00;99.90
12948;DHT22;6539;49.476;8.484;2023-08-24T15:11:18;27.90;99.90
12948;DHT22;6539;49.476;8.484;2023-08-24T15:14:04;27.80;99.90
12948;DHT22;6539;49.476;8.484;2023-08-24T15:16:50;27.60;99.90
12948;DHT22;6539;49.476;8.484;2023-08-24T15:19:36;27.40;99.90
12948;DHT22;6539;49.476;8.484;2023-08-24T15:22:23;27.40;99.90
12948;DHT22;6539;49.476;8.484;2023-08-24T15:25:14;27.30;99.90
12948;DHT22;6539;49.476;8.484;2023-08-24T15:28:03;27.30;99.90
12948;DHT22;6539;49.476;8.484;2023-08-24T15:30:54;27.50;99.90
12948;DHT22;6539;49.476;8.484;2023-08-24T15:33:40;27.60;99.90
12948;DHT22;6539;49.476;8.484;2023-08-24T15:36:27;27.60;99.90
12948;DHT22;6539;49.476;8.484;2023-08-24T15:39:13;27.70;99.90
12948;DHT22;6539;49.476;8.484;2023-08-24T15:42:01;27.90;99.90
12948;DHT22;6539;49.476;8.484;2023-08-24T15:44:47;28.00;99.90
12948;DHT22;6539;49.476;8.484;2023-08-24T15:47:33;28.00;99.90
12948;DHT22;6539;49.476;8.484;2023-08-24T15:50:19;28.20;99.90
12948;DHT22;6539;49.476;8.484;2023-08-24T15:53:08;28.20;99.90
12948;DHT22;6539;49.476;8.484;2023-08-24T15:55:56;28.30;99.90
12948;DHT22;6539;49.476;8.484;2023-08-24T15:58:43;28.30;99.90
12948;DHT22;6539;49.476;8.484;2023-08-24T16:01:31;28.30;99.90
12948;DHT22;6539;49.476;8.484;2023-08-24T16:04:19;28.40;99.90
12948;DHT22;6539;49.476;8.484;2023-08-24T16:07:05;28.20;99.90
12948;DHT22;6539;49.476;8.484;2023-08-24T16:09:51;28.20;99.90
12948;DHT22;6539;49.476;8.484;2023-08-24T16:12:37;28.10;99.90
12948;DHT22;6539;49.476;8.484;2023-08-24T16:15:26;28.00;99.90
12948;DHT22;6539;49.476;8.484;2023-08-24T16:18:12;28.00;99.90
12948;DHT22;6539;49.476;8.484;2023-08-24T16:20:58;28.00;99.90
12948;DHT22;6539;49.476;8.484;2023-08-24T16:23:46;27.90;99.90
12948;DHT22;6539;49.476;8.484;2023-08-24T16:26:36;27.90;99.90
12948;DHT22;6539;49.476;8.484;2023-08-24T16:29:22;27.70;99.90
12948;DHT22;6539;49.476;8.484;2023-08-24T16:32:12;27.40;99.90
12948;DHT22;6539;49.476;8.484;2023-08-24T16:35:01;27.20;99.90
12948;DHT22;6539;49.476;8.484;2023-08-24T16:37:47;27.10;99.90
12948;DHT22;6539;49.476;8.484;2023-08-24T16:40:34;26.90;99.90
12948;DHT22;6539;49.476;8.484;2023-08-24T16:43:20;26.90;99.90
12948;DHT22;6539;49.476;8.484;2023-08-24T16:46:06;26.80;99.90
12948;DHT22;6539;49.476;8.484;2023-08-24T16:48:54;26.70;99.90
12948;DHT22;6539;49.476;8.484;2023-08-24T16:51:42;26.70;99.90
12948;DHT22;6539;49.476;8.484;2023-08-24T16:54:28;26.60;99.90
12948;DHT22;6539;49.476;8.484;2023-08-24T16:57:14;26.50;99.90
12948;DHT22;6539;49.476;8.484;2023-08-24T17:00:01;26.40;99.90
12948;DHT22;6539;49.476;8.484;2023-08-24T17:02:49;26.40;99.90
12948;DHT22;6539;49.476;8.484;2023-08-24T17:05:38;26.40;99.90
12948;DHT22;6539;49.476;8.484;2023-08-24T17:08:24;26.30;99.90
12948;DHT22;6539;49.476;8.484;2023-08-24T17:11:15;26.30;99.90
12948;DHT22;6539;49.476;8.484;2023-08-24T17:14:03;26.30;99.90
12948;DHT22;6539;49.476;8.484;2023-08-24T17:16:52;26.30;99.90
12948;DHT22;6539;49.476;8.484;2023-08-24T17:19:39;26.20;99.90
12948;DHT22;6539;49.476;8.484;2023-08-24T17:22:25;26.20;99.90
12948;DHT22;6539;49.476;8.484;2023-08-24T17:25:11;26.10;99.90
12948;DHT22;6539;49.476;8.484;2023-08-24T17:27:57;25.70;99.90
12948;DHT22;6539;49.476;8.484;2023-08-24T17:30:47;23.50;99.90
12948;DHT22;6539;49.476;8.484;2023-08-24T17:33:34;22.60;99.90
12948;DHT22;6539;49.476;8.484;2023-08-24T17:36:21;22.00;99.90
12948;DHT22;6539;49.476;8.484;2023-08-24T17:39:07;21.90;99.90
12948;DHT22;6539;49.476;8.484;2023-08-24T17:41:53;21.80;99.90
12948;DHT22;6539;49.476;8.484;2023-08-24T17:44:39;21.80;99.90
12948;DHT22;6539;49.476;8.484;2023-08-24T17:47:25;21.90;99.90
12948;DHT22;6539;49.476;8.484;2023-08-24T17:50:11;21.90;99.90
12948;DHT22;6539;49.476;8.484;2023-08-24T17:52:59;22.00;99.90
12948;DHT22;6539;49.476;8.484;2023-08-24T17:55:45;22.10;99.90
12948;DHT22;6539;49.476;8.484;2023-08-24T17:58:36;22.20;99.90
12948;DHT22;6539;49.476;8.484;2023-08-24T18:01:25;22.20;99.90
12948;DHT22;6539;49.476;8.484;2023-08-24T18:04:12;22.20;99.90
12948;DHT22;6539;49.476;8.484;2023-08-24T18:07:00;22.30;99.90
12948;DHT22;6539;49.476;8.484;2023-08-24T18:09:46;22.40;99.90